Time;durP1;ratioP1;P1;durP2;ratioP2;P2;SDS_P1;SDS_P2;PMS_P1;PMS_P2;Temp;Humidity;BMP_temperature;BMP_pressure;BME280_temperature;BME280_humidity;BME280_pressure;Samples;Min_cycle;Max_cycle;Signal;HPM_P1;HPM_P2
2022/12/20 00:01:27;;;;;;;48.03;22.02;;;;;;;0.80;60.18;101625.50;7821611;31;38791;-80
2022/12/20 00:05:43;;;;;;;59.67;23.48;;;;;;;0.87;60.05;101622.00;7820048;32;37240;-79
2022/12/20 00:10:00;;;;;;;48.25;24.08;;;;;;;1.00;59.53;101629.59;7833566;31;40005;-80
2022/12/20 00:14:16;;;;;;;60.17;25.90;;;;;;;0.81;60.21;101614.59;7847461;31;39885;-80
2022/12/20 00:18:33;;;;;;;55.90;24.30;;;;;;;-0.02;62.16;101601.78;7842049;31;38875;-80
2022/12/20 00:22:49;;;;;;;59.30;24.15;;;;;;;0.75;60.18;101591.91;7819796;32;37252;-80
2022/12/20 00:27:06;;;;;;;49.45;23.42;;;;;;;0.87;59.93;101600.50;7819765;32;40038;-78
2022/12/20 00:31:23;;;;;;;62.22;25.58;;;;;;;0.81;59.90;101597.62;7829204;31;39987;-80
2022/12/20 00:35:42;;;;;;;53.55;24.45;;;;;;;0.18;61.76;101591.69;7819398;31;38785;-79
2022/12/20 00:39:58;;;;;;;51.92;23.17;;;;;;;0.74;60.36;101587.56;7833193;31;37071;-81
2022/12/20 00:44:14;;;;;;;55.55;22.98;;;;;;;0.65;60.56;101572.41;7847063;31;39507;-80
2022/12/20 00:48:31;;;;;;;53.92;22.70;;;;;;;0.31;61.65;101565.25;7842999;31;39983;-80
2022/12/20 00:52:48;;;;;;;47.72;23.48;;;;;;;0.85;59.98;101561.41;7818456;32;37863;-79
2022/12/20 00:57:04;;;;;;;58.47;24.90;;;;;;;0.30;61.48;101563.56;7819474;32;37827;-81
2022/12/20 01:01:27;;;;;;;53.78;23.48;;;;;;;0.73;60.41;101552.81;7820683;31;39094;-79
2022/12/20 01:05:54;;;;;;;47.00;22.40;;;;;;;0.56;60.75;101568.03;7846741;31;40587;-80
2022/12/20 01:10:10;;;;;;;60.33;25.80;;;;;;;0.50;61.13;101560.62;7832023;31;37930;-81
2022/12/20 01:14:27;;;;;;;48.55;23.25;;;;;;;0.35;61.60;101566.59;7819276;32;37012;-80
2022/12/20 01:18:43;;;;;;;48.22;24.08;;;;;;;-0.28;63.22;101557.03;7834758;31;38943;-79
2022/12/20 01:22:59;;;;;;;45.60;22.85;;;;;;;0.28;62.19;101543.28;7845380;31;39969;-79
2022/12/20 01:27:15;;;;;;;60.33;24.50;;;;;;;0.46;60.93;101546.69;7826764;31;37982;-79
2022/12/20 01:31:32;;;;;;;48.42;22.30;;;;;;;0.27;61.95;101537.06;7818686;32;37125;-80
2022/12/20 01:36:19;;;;;;;46.72;22.27;;;;;;;0.91;59.84;101507.03;7828643;31;40040;-80
2022/12/20 01:40:38;;;;;;;53.35;22.98;;;;;;;0.29;61.14;101502.84;7845939;31;39988;-79
2022/12/20 01:44:57;;;;;;;50.97;24.27;;;;;;;0.51;61.09;101503.28;7842306;31;38729;-80
2022/12/20 01:49:18;;;;;;;52.67;22.48;;;;;;;0.60;60.54;101504.97;7818155;32;37224;-79
2022/12/20 01:53:34;;;;;;;56.37;23.23;;;;;;;0.74;59.89;101509.72;7823444;31;40013;-80
2022/12/20 01:58:11;;;;;;;51.05;23.25;;;;;;;0.59;60.65;101508.66;7820979;31;40864;-79
2022/12/20 02:02:27;;;;;;;46.72;22.67;;;;;;;0.52;60.16;101507.66;7818123;32;37600;-79
2022/12/20 02:06:43;;;;;;;51.08;22.42;;;;;;;1.04;58.90;101501.19;7843825;31;37171;-79
2022/12/20 02:11:12;;;;;;;55.95;23.05;;;;;;;1.01;59.06;101502.34;7845456;31;39274;-80
2022/12/20 02:15:55;;;;;;;52.22;23.10;;;;;;;1.18;58.64;101502.34;7826244;31;40818;-80
2022/12/20 02:20:48;;;;;;;50.53;23.67;;;;;;;0.64;59.79;101494.72;7817665;32;38436;-79
2022/12/20 02:25:36;;;;;;;44.97;21.93;;;;;;;0.45;60.63;101483.31;7844160;31;37808;-80
2022/12/20 02:30:14;;;;;;;50.47;22.65;;;;;;;0.18;61.33;101473.66;7833887;31;39901;-81
2022/12/20 02:34:32;;;;;;;50.70;22.45;;;;;;;0.20;61.68;101463.59;7819744;32;40017;-80
2022/12/20 02:38:50;;;;;;;53.65;23.05;;;;;;;0.70;60.47;101441.22;7835307;31;38783;-80
2022/12/20 02:47:57;;;;;;;43.92;21.52;;;;;;;0.10;62.75;101430.69;7840668;31;39903;-80
2022/12/20 02:52:14;;;;;;;52.70;22.33;;;;;;;0.17;61.73;101429.91;7820157;32;39951;-80
2022/12/20 02:56:47;;;;;;;49.95;22.33;;;;;;;0.66;60.67;101423.78;7842017;31;38135;-81
2022/12/20 03:01:26;;;;;;;56.55;24.20;;;;;;;0.91;59.75;101429.16;7851338;31;37229;-77
2022/12/20 03:05:45;;;;;;;49.42;23.15;;;;;;;0.62;60.08;101433.19;7850294;31;39521;-80
2022/12/20 03:10:01;;;;;;;50.25;21.98;;;;;;;1.03;59.21;101441.22;7825039;31;40906;-80
2022/12/20 03:14:18;;;;;;;49.58;24.40;;;;;;;0.98;59.51;101448.13;7820669;32;37856;-79
2022/12/20 03:18:34;;;;;;;49.92;23.77;;;;;;;0.64;60.61;101459.84;7830003;31;38022;-80
2022/12/20 03:22:51;;;;;;;53.33;22.58;;;;;;;1.13;59.21;101447.25;7820523;31;40212;-80
2022/12/20 03:27:07;;;;;;;54.97;23.27;;;;;;;1.17;59.03;101425.44;7824055;31;40579;-80
2022/12/20 03:31:24;;;;;;;53.25;22.10;;;;;;;1.13;59.07;101420.41;7847953;31;38676;-78
2022/12/20 03:35:40;;;;;;;44.63;21.50;;;;;;;1.25;58.48;101404.78;7848326;31;35405;-80
2022/12/20 03:39:57;;;;;;;50.03;22.87;;;;;;;0.78;60.15;101426.97;7825604;31;40151;-81
2022/12/20 03:44:13;;;;;;;48.25;21.48;;;;;;;1.05;59.61;101425.81;7819860;32;40681;-80
2022/12/20 03:48:29;;;;;;;46.67;20.55;;;;;;;0.93;59.69;101402.97;7832342;31;37657;-80
2022/12/20 03:52:45;;;;;;;45.25;19.70;;;;;;;1.10;59.19;101395.72;7847720;31;38004;-80
2022/12/20 03:57:02;;;;;;;45.17;20.95;;;;;;;1.00;59.50;101371.75;7844862;31;40075;-79
2022/12/20 04:01:27;;;;;;;43.50;20.73;;;;;;;1.21;58.83;101370.34;7820096;32;39969;-80
2022/12/20 04:05:43;;;;;;;45.42;20.95;;;;;;;1.17;58.83;101382.47;7819934;32;38508;-79
2022/12/20 04:09:59;;;;;;;42.92;20.98;;;;;;;0.99;59.12;101386.19;7841548;31;37197;-80
2022/12/20 04:14:15;;;;;;;51.58;21.05;;;;;;;0.97;59.05;101388.22;7847380;31;37723;-79
2022/12/20 04:18:32;;;;;;;44.95;20.50;;;;;;;1.19;58.89;101383.13;7835315;31;40832;-79
2022/12/20 04:22:49;;;;;;;46.28;20.00;;;;;;;1.38;58.26;101382.75;7819791;32;37909;-80
2022/12/20 04:27:06;;;;;;;44.72;21.55;;;;;;;1.30;58.72;101377.41;7832868;31;37989;-78
2022/12/20 04:31:22;;;;;;;39.80;19.87;;;;;;;0.80;60.69;101376.63;7847368;31;39214;-81
2022/12/20 04:35:39;;;;;;;48.80;22.50;;;;;;;0.99;59.91;101375.44;7843157;31;39692;-79
2022/12/20 04:39:57;;;;;;;46.90;21.62;;;;;;;1.16;59.49;101376.25;7819587;32;38745;-80
2022/12/20 04:44:13;;;;;;;43.35;20.45;;;;;;;1.39;58.51;101391.66;7819540;32;37675;-80
2022/12/20 04:48:29;;;;;;;41.88;21.40;;;;;;;1.47;58.53;101384.41;7825512;31;39846;-81
2022/12/20 04:57:40;;;;;;;42.00;20.37;;;;;;;1.65;64.14;101394.91;7834982;31;38748;-71
2022/12/20 05:01:56;;;;;;;40.50;20.23;;;;;;;1.85;62.15;101398.03;7846870;31;37211;-81
2022/12/20 05:06:13;;;;;;;51.13;22.17;;;;;;;2.03;60.50;101391.56;7839673;31;40196;-80
2022/12/20 05:10:30;;;;;;;44.15;19.92;;;;;;;2.02;57.18;101387.22;7819212;31;40918;-79
2022/12/20 05:14:46;;;;;;;47.60;21.35;;;;;;;2.23;56.14;101390.09;7819210;32;37839;-81
2022/12/20 05:19:03;;;;;;;44.10;20.70;;;;;;;1.78;57.06;101375.56;7843775;31;37205;-79
2022/12/20 05:27:57;;;;;;;42.62;19.62;;;;;;;1.73;57.87;101382.47;7844810;31;40767;-81
2022/12/20 05:32:13;;;;;;;35.50;19.65;;;;;;;1.77;57.50;101381.09;7833816;31;37679;-81
2022/12/20 05:36:30;;;;;;;40.95;20.80;;;;;;;1.85;57.08;101387.28;7826953;31;37979;-82
2022/12/20 05:40:48;;;;;;;42.47;20.70;;;;;;;1.79;57.20;101385.28;7846185;31;39991;-81
2022/12/20 05:45:05;;;;;;;42.65;19.95;;;;;;;1.95;56.80;101370.94;7846219;31;41651;-82
2022/12/20 05:49:21;;;;;;;41.50;18.87;;;;;;;1.87;56.96;101366.41;7838399;31;37969;-80
2022/12/20 05:53:37;;;;;;;43.53;19.65;;;;;;;1.79;57.81;101371.81;7846269;31;36751;-79
2022/12/20 05:57:53;;;;;;;42.10;20.10;;;;;;;1.36;58.44;101365.13;7828848;31;39008;-78
2022/12/20 06:02:10;;;;;;;40.05;20.15;;;;;;;1.72;57.25;101354.72;7818315;32;40006;-79
2022/12/20 06:06:27;;;;;;;42.42;20.55;;;;;;;0.73;60.04;101351.47;7825465;31;38491;-78
2022/12/20 06:10:43;;;;;;;38.97;20.25;;;;;;;1.05;59.48;101331.81;7829270;31;37758;-78
2022/12/20 08:35:18;;;;;;;36.15;19.12;;;;;;;1.71;56.91;101295.75;7821909;27;173484;-88
2022/12/20 08:39:48;;;;;;;37.05;20.33;;;;;;;1.93;57.33;101302.19;7593069;32;37281;-85
2022/12/20 08:44:05;;;;;;;42.70;20.20;;;;;;;1.91;57.40;101288.91;7647356;32;39094;-84
2022/12/20 08:48:22;;;;;;;39.97;19.60;;;;;;;1.99;57.23;101296.94;7647122;32;39685;-86
2022/12/20 08:52:39;;;;;;;42.03;19.62;;;;;;;2.28;55.94;101295.38;7646544;32;37860;-86
2022/12/20 08:56:55;;;;;;;36.67;19.20;;;;;;;2.11;56.10;101299.22;7646370;32;37106;-87
2022/12/20 09:01:16;;;;;;;38.42;19.67;;;;;;;2.24;55.92;101294.91;7646645;32;39137;-86
2022/12/20 09:05:32;;;;;;;38.85;19.45;;;;;;;2.55;55.44;101290.44;7664055;32;39964;-85
2022/12/20 09:09:49;;;;;;;36.63;18.90;;;;;;;2.57;55.13;101291.94;7703879;32;38054;-85
2022/12/20 09:14:06;;;;;;;38.13;19.15;;;;;;;2.14;56.51;101286.25;7703772;32;37822;-83
2022/12/20 09:18:23;;;;;;;39.92;18.95;;;;;;;2.67;54.97;101282.75;7703966;32;39272;-83
2022/12/20 09:22:39;;;;;;;40.12;19.92;;;;;;;2.82;54.28;101280.91;7703108;32;39918;-82
2022/12/20 09:26:55;;;;;;;36.72;18.55;;;;;;;2.94;54.44;101263.28;7703599;32;38714;-83
2022/12/20 09:31:14;;;;;;;42.20;19.75;;;;;;;2.79;54.37;101251.66;7702837;32;37927;-82
2022/12/20 09:35:32;;;;;;;34.70;18.17;;;;;;;3.20;53.24;101243.94;7675944;32;39108;-82
2022/12/20 09:39:51;;;;;;;39.63;19.05;;;;;;;2.98;53.21;101252.97;7659261;32;39915;-83
2022/12/20 09:44:30;;;;;;;39.08;19.23;;;;;;;2.87;54.32;101235.41;7651464;32;38180;-83
2022/12/20 09:48:47;;;;;;;43.97;19.40;;;;;;;2.88;54.29;101237.09;7632407;32;37890;-84
2022/12/20 09:53:18;;;;;;;37.45;18.17;;;;;;;2.80;54.26;101245.25;7633108;32;39130;-83
2022/12/20 09:58:07;;;;;;;39.22;18.58;;;;;;;3.04;54.02;101230.69;7618319;32;39992;-85
2022/12/20 10:02:25;;;;;;;35.60;17.98;;;;;;;3.46;52.62;101233.69;7626994;32;39284;-85
2022/12/20 10:07:13;;;;;;;37.65;17.70;;;;;;;3.21;52.93;101207.06;7641596;32;37468;-86
2022/12/20 10:11:50;;;;;;;34.38;16.75;;;;;;;3.72;51.89;101206.16;7632716;32;39823;-84
2022/12/20 10:16:33;;;;;;;33.38;17.30;;;;;;;4.07;50.89;101215.22;7632474;32;40690;-84
2022/12/20 10:21:14;;;;;;;33.90;17.27;;;;;;;3.92;51.38;101207.19;7632725;32;39262;-85
2022/12/20 10:25:33;;;;;;;27.50;15.77;;;;;;;3.15;53.07;101213.19;7632737;32;37206;-83
2022/12/20 10:29:49;;;;;;;35.50;16.87;;;;;;;3.63;51.24;101193.84;7632762;32;39066;-84
2022/12/20 10:34:06;;;;;;;32.78;16.17;;;;;;;3.78;50.82;101180.28;7636567;32;39705;-84
2022/12/20 10:38:23;;;;;;;32.78;16.37;;;;;;;3.99;50.15;101174.06;7685242;32;38784;-84
2022/12/20 10:42:42;;;;;;;34.97;17.10;;;;;;;3.62;50.55;101167.88;7684716;32;37978;-83
2022/12/20 10:47:00;;;;;;;32.88;16.77;;;;;;;3.53;51.76;101176.09;7683206;32;38589;-83
2022/12/20 10:51:21;;;;;;;35.40;16.58;;;;;;;3.94;50.61;101169.22;7684096;32;42261;-83
2022/12/20 10:55:41;;;;;;;33.65;16.58;;;;;;;4.12;49.93;101150.69;7684806;32;37872;-83
2022/12/20 11:00:02;;;;;;;29.50;14.82;;;;;;;4.22;49.85;101133.31;7682229;32;37085;-84
2022/12/20 11:04:31;;;;;;;32.60;15.48;;;;;;;4.75;48.81;101124.72;7682014;32;39252;-86
2022/12/20 11:08:47;;;;;;;35.67;16.60;;;;;;;4.69;48.34;101110.09;7669138;32;40762;-85
2022/12/20 11:13:24;;;;;;;34.08;16.00;;;;;;;4.14;50.41;101108.16;7674766;32;38582;-84
2022/12/20 11:17:47;;;;;;;29.33;15.38;;;;;;;4.59;48.85;101104.25;7682857;32;37911;-84
2022/12/20 11:22:14;;;;;;;31.67;15.45;;;;;;;4.62;48.78;101098.44;7684194;32;40328;-84
2022/12/20 11:27:02;;;;;;;30.25;14.63;;;;;;;4.97;47.96;101082.19;7684396;32;39661;-83
2022/12/20 11:31:40;;;;;;;32.33;16.27;;;;;;;4.93;47.83;101079.03;7683887;32;38019;-85
2022/12/20 11:36:16;;;;;;;28.77;15.90;;;;;;;5.40;47.16;101079.16;7669769;32;37091;-86
2022/12/20 11:40:37;;;;;;;32.00;16.37;;;;;;;5.45;47.09;101063.97;7684046;32;39996;-85
2022/12/20 11:45:00;;;;;;;38.33;15.10;;;;;;;5.91;45.60;101058.75;7685358;32;39986;-85
2022/12/20 11:49:49;;;;;;;32.22;13.80;;;;;;;6.03;45.25;101057.09;7674559;32;37957;-85
2022/12/20 11:54:12;;;;;;;30.15;14.65;;;;;;;6.41;44.52;101053.69;7682228;32;37352;-83
2022/12/20 11:58:39;;;;;;;26.37;14.45;;;;;;;6.50;44.24;101060.56;7683187;32;39869;-84
2022/12/20 12:03:25;;;;;;;27.27;14.63;;;;;;;6.21;44.29;101042.94;7682271;32;39867;-83
2022/12/20 12:07:46;;;;;;;26.42;15.30;;;;;;;6.11;43.85;101051.47;7678835;32;38813;-85
2022/12/20 12:12:20;;;;;;;31.58;14.73;;;;;;;5.67;44.99;101046.72;7681715;32;37969;-83
2022/12/20 12:16:39;;;;;;;27.60;15.38;;;;;;;5.21;46.16;101022.12;7670312;32;39231;-82
2022/12/20 12:21:12;;;;;;;28.35;14.52;;;;;;;5.51;45.54;101021.72;7681844;32;39952;-84
2022/12/20 12:25:28;;;;;;;25.00;14.45;;;;;;;5.20;45.61;101020.47;7681024;32;38061;-82
2022/12/20 12:29:45;;;;;;;31.87;14.98;;;;;;;5.33;45.89;101005.28;7681972;32;37947;-82
2022/12/20 12:34:38;;;;;;;27.23;14.07;;;;;;;5.12;46.47;101020.66;7682702;32;39101;-82
2022/12/20 12:39:38;;;;;;;31.03;14.87;;;;;;;5.29;46.12;101010.28;7670251;32;39649;-82
2022/12/20 12:43:57;;;;;;;32.58;15.82;;;;;;;4.97;47.31;101015.44;7681133;32;38464;-83
2022/12/20 12:48:19;;;;;;;26.48;13.85;;;;;;;5.76;45.35;101010.25;7669305;32;37174;-82
2022/12/20 12:52:48;;;;;;;29.12;13.35;;;;;;;5.95;45.09;101001.31;7681942;32;39147;-82
2022/12/20 12:57:17;;;;;;;27.05;14.00;;;;;;;5.81;44.94;100999.63;7681534;32;39869;-83
2022/12/20 13:02:16;;;;;;;30.65;13.90;;;;;;;5.40;46.32;100996.16;7685391;32;38785;-84
2022/12/20 13:06:35;;;;;;;27.52;13.60;;;;;;;6.30;44.82;100997.50;7709186;32;37938;-76
2022/12/20 13:10:53;;;;;;;26.23;12.60;;;;;;;7.31;43.43;100960.59;7695807;32;36883;-84
2022/12/20 13:15:21;;;;;;;29.37;12.65;;;;;;;7.68;40.50;100952.53;7685762;32;39771;-84
2022/12/20 13:19:38;;;;;;;28.58;15.30;;;;;;;7.56;40.60;100962.47;7685095;32;37988;-84
2022/12/20 13:24:28;;;;;;;31.90;14.73;;;;;;;7.34;40.85;100952.00;7671784;32;37687;-84
2022/12/20 13:39:33;;;;;;;30.67;15.20;;;;;;;10.32;34.98;100957.16;7637626;28;38563;-81
2022/12/20 13:43:49;;;;;;;27.30;13.77;;;;;;;10.37;34.08;100959.16;7557278;32;37206;-81
2022/12/20 13:48:07;;;;;;;26.77;14.05;;;;;;;10.63;33.77;100952.31;7641782;32;39864;-81
2022/12/20 13:52:41;;;;;;;28.60;14.70;;;;;;;11.52;31.82;100940.72;7654339;32;39930;-82
2022/12/20 13:56:59;;;;;;;25.85;14.15;;;;;;;9.90;34.87;100944.53;7643208;32;37909;-81
2022/12/20 14:01:15;;;;;;;27.50;14.25;;;;;;;8.45;37.58;100927.63;7651819;32;37183;-81
2022/12/20 14:05:36;;;;;;;29.75;14.82;;;;;;;8.79;37.67;100917.94;7627502;32;39412;-80
2022/12/20 14:10:00;;;;;;;28.60;14.40;;;;;;;8.83;37.41;100912.91;7672819;32;40820;-81
2022/12/20 14:14:16;;;;;;;28.85;15.30;;;;;;;7.66;39.40;100912.06;7710616;32;38021;-82
2022/12/20 14:18:33;;;;;;;31.60;16.92;;;;;;;6.89;41.75;100919.63;7710671;32;37194;-82
2022/12/20 14:23:18;;;;;;;30.98;17.80;;;;;;;6.42;43.34;100914.50;7710380;32;38412;-81
2022/12/20 14:27:37;;;;;;;40.58;19.70;;;;;;;5.65;45.58;100925.97;7688516;32;40741;-80
2022/12/20 14:31:53;;;;;;;43.92;22.52;;;;;;;5.07;47.26;100917.72;7671776;32;38021;-80
2022/12/20 14:36:16;;;;;;;35.40;18.62;;;;;;;4.14;50.29;100923.78;7685301;32;38132;-81
2022/12/20 14:40:39;;;;;;;44.17;19.87;;;;;;;4.49;49.33;100924.50;7709002;32;39713;-81
2022/12/20 14:45:05;;;;;;;;;;;;;;;4.21;50.00;100924.66;7727738;32;40022;-80
2022/12/20 14:49:35;;;;;;;33.35;18.27;;;;;;;4.12;50.44;100910.50;7726305;32;39108;-80
2022/12/20 14:53:58;;;;;;;35.85;17.83;;;;;;;3.90;51.08;100900.84;7727194;32;36093;-79
2022/12/20 14:58:31;;;;;;;;;;;;;;;3.84;51.37;100897.06;7738906;32;39304;-79
2022/12/20 15:03:21;;;;;;;41.42;19.85;;;;;;;3.34;53.01;100918.75;7718132;32;40336;-80
2022/12/20 15:07:40;;;;;;;43.95;20.50;;;;;;;3.07;54.20;100930.38;7711445;32;38755;-80
2022/12/20 15:11:57;;;;;;;45.83;20.70;;;;;;;3.11;54.19;100934.34;7734025;32;38132;-80
2022/12/20 15:16:20;;;;;;;38.88;20.40;;;;;;;2.95;54.58;100930.91;7714147;32;39193;-79
2022/12/20 15:20:37;;;;;;;43.63;21.15;;;;;;;3.10;54.32;100932.69;7712259;32;40863;-79
2022/12/20 15:24:53;;;;;;;42.38;19.90;;;;;;;3.05;54.61;100932.44;7724799;32;37968;-79
2022/12/20 15:29:29;;;;;;;40.22;20.77;;;;;;;3.08;54.63;100929.34;7708615;32;37914;-77
2022/12/20 15:33:49;;;;;;;44.67;20.52;;;;;;;2.43;56.85;100918.56;7710291;32;39224;-78
2022/12/20 15:38:08;;;;;;;42.78;20.48;;;;;;;3.09;55.02;100920.25;7723334;32;39985;-77
2022/12/20 15:42:24;;;;;;;43.80;21.92;;;;;;;2.92;55.35;100936.66;7737653;32;38065;-77
2022/12/20 15:46:41;;;;;;;36.88;20.17;;;;;;;2.49;56.59;100944.72;7737768;32;38062;-77
2022/12/20 15:50:58;;;;;;;45.40;21.08;;;;;;;3.11;56.22;100932.47;7737820;32;39297;-77
2022/12/20 15:55:15;;;;;;;43.80;21.98;;;;;;;3.15;55.41;100935.63;7737694;32;40087;-77
2022/12/20 15:59:31;;;;;;;43.25;21.40;;;;;;;3.17;55.10;100914.69;7737427;32;38682;-78
2022/12/20 16:04:12;;;;;;;44.70;21.08;;;;;;;3.08;55.07;100900.53;7737084;32;37404;-78
2022/12/20 16:08:29;;;;;;;42.13;21.50;;;;;;;2.62;56.32;100901.81;7716952;32;40070;-77
2022/12/20 16:12:45;;;;;;;42.55;21.75;;;;;;;2.87;55.74;100906.78;7710550;32;40225;-79
2022/12/20 16:17:02;;;;;;;43.97;20.80;;;;;;;2.56;56.61;100901.72;7714445;32;38011;-78
2022/12/20 16:21:23;;;;;;;47.42;22.92;;;;;;;2.86;55.86;100905.09;7737245;32;36569;-77
2022/12/20 16:25:39;;;;;;;42.38;22.77;;;;;;;2.31;57.56;100896.72;7717974;32;39240;-78
2022/12/20 16:29:55;;;;;;;42.88;21.83;;;;;;;2.11;58.20;100890.28;7715938;32;40046;-78
2022/12/20 16:34:14;;;;;;;45.67;21.23;;;;;;;1.92;59.12;100913.22;7735868;32;38709;-78
2022/12/20 16:38:30;;;;;;;44.03;22.52;;;;;;;2.25;58.63;100908.25;7736644;32;37110;-77
2022/12/20 16:42:47;;;;;;;43.22;23.17;;;;;;;2.72;56.94;100898.78;7736992;32;40093;-81
2022/12/20 16:47:06;;;;;;;51.88;22.87;;;;;;;2.55;57.47;100886.59;7739711;32;39463;-81
2022/12/20 16:51:25;;;;;;;45.95;23.40;;;;;;;2.34;58.24;100898.19;7739890;32;37590;-81
2022/12/20 16:55:42;;;;;;;46.42;23.08;;;;;;;1.95;59.42;100894.84;7739977;32;37349;-82
2022/12/20 16:59:58;;;;;;;46.65;22.73;;;;;;;2.17;59.16;100890.34;7739971;32;38872;-81
2022/12/20 17:04:16;;;;;;;48.30;24.17;;;;;;;1.98;59.97;100891.75;7725927;32;40837;-81
2022/12/20 17:08:32;;;;;;;49.50;24.83;;;;;;;2.00;59.90;100883.50;7739650;32;39521;-81
2022/12/20 17:13:10;;;;;;;49.00;22.42;;;;;;;1.95;60.02;100892.16;7728038;32;37949;-81
2022/12/20 17:17:26;;;;;;;48.22;25.12;;;;;;;2.34;59.16;100884.72;7726085;32;39355;-81
2022/12/20 17:21:47;;;;;;;48.78;25.05;;;;;;;2.35;59.12;100881.84;7739654;32;39994;-81
2022/12/20 17:26:26;;;;;;;45.60;23.38;;;;;;;2.12;59.65;100887.41;7728146;32;39623;-81
2022/12/20 17:30:42;;;;;;;42.30;22.52;;;;;;;2.22;59.80;100882.53;7739549;32;36998;-80
2022/12/20 17:34:58;;;;;;;46.45;24.20;;;;;;;2.58;58.35;100881.66;7739429;32;38994;-80
2022/12/20 17:39:15;;;;;;;49.05;25.23;;;;;;;2.32;59.14;100876.84;7739314;32;40845;-81
2022/12/20 17:43:31;;;;;;;50.75;25.58;;;;;;;2.15;59.19;100878.09;7739047;32;37999;-80
2022/12/20 17:47:48;;;;;;;52.03;25.65;;;;;;;2.27;59.39;100871.19;7732130;32;37209;-80
2022/12/20 17:52:04;;;;;;;49.58;25.23;;;;;;;2.23;59.54;100873.44;7725732;32;38873;-80
2022/12/20 17:56:31;;;;;;;52.88;26.40;;;;;;;2.61;58.22;100858.91;7711828;32;40849;-80
2022/12/20 18:00:49;;;;;;;48.53;24.67;;;;;;;2.27;59.22;100860.44;7716065;32;38153;-81
2022/12/20 18:05:06;;;;;;;49.97;24.35;;;;;;;2.55;58.52;100849.75;7732781;32;37902;-80
2022/12/20 18:09:22;;;;;;;49.60;24.45;;;;;;;2.31;59.17;100853.66;7717250;32;39755;-80
2022/12/20 18:13:43;;;;;;;59.60;26.00;;;;;;;2.21;59.32;100843.22;7712064;32;40839;-80
2022/12/20 18:17:59;;;;;;;49.63;25.80;;;;;;;2.33;59.26;100834.59;7714026;32;38750;-81
2022/12/20 18:22:15;;;;;;;53.45;25.17;;;;;;;2.09;60.09;100844.72;7736391;32;37205;-80
2022/12/20 18:26:33;;;;;;;54.33;25.83;;;;;;;2.06;60.30;100843.25;7738615;32;39015;-80
2022/12/20 18:30:50;;;;;;;46.58;24.77;;;;;;;1.91;60.50;100842.44;7724783;32;40868;-80
2022/12/20 18:35:07;;;;;;;47.80;26.15;;;;;;;2.42;59.27;100820.03;7738397;32;38710;-80
2022/12/20 18:39:23;;;;;;;55.00;27.37;;;;;;;2.13;60.07;100821.78;7738526;32;37248;-79
2022/12/20 18:43:39;;;;;;;53.10;25.33;;;;;;;1.75;61.10;100816.63;7738385;32;39340;-80
2022/12/20 18:47:55;;;;;;;49.92;23.75;;;;;;;2.27;60.08;100830.84;7724473;32;40690;-80
2022/12/20 18:52:12;;;;;;;54.08;27.30;;;;;;;1.99;60.31;100828.06;7724391;32;37980;-80
2022/12/20 18:56:35;;;;;;;57.53;27.58;;;;;;;2.46;58.97;100809.69;7738294;32;37945;-80
2022/12/20 19:00:55;;;;;;;45.70;24.33;;;;;;;2.14;59.85;100814.56;7724633;32;39166;-81
2022/12/20 19:05:11;;;;;;;53.75;26.33;;;;;;;2.39;59.38;100810.47;7736289;32;40887;-81
2022/12/20 19:09:28;;;;;;;55.60;26.70;;;;;;;2.48;59.30;100794.19;7737745;32;36142;-82
2022/12/20 19:13:44;;;;;;;50.30;24.08;;;;;;;2.32;59.54;100789.91;7736512;32;37867;-80
2022/12/20 19:18:00;;;;;;;54.80;27.02;;;;;;;2.63;59.04;100794.94;7724290;32;39292;-79
2022/12/20 19:22:17;;;;;;;57.50;26.45;;;;;;;2.39;59.23;100793.47;7724439;32;40852;-80
2022/12/20 19:26:35;;;;;;;44.88;24.33;;;;;;;2.28;59.87;100792.16;7737990;32;38657;-80
2022/12/20 19:30:51;;;;;;;53.22;25.70;;;;;;;2.33;59.96;100796.94;7724520;32;37128;-81
2022/12/20 19:35:08;;;;;;;49.30;26.02;;;;;;;2.35;59.86;100800.28;7738127;32;39323;-80
2022/12/20 19:39:44;;;;;;;53.03;24.30;;;;;;;2.41;59.94;100810.25;7737303;32;40121;-80
2022/12/20 19:44:00;;;;;;;54.83;26.85;;;;;;;2.54;59.35;100820.34;7737788;32;37664;-81
2022/12/20 19:48:17;;;;;;;52.97;25.27;;;;;;;2.51;59.69;100831.47;7709616;32;37967;-81
2022/12/20 19:52:33;;;;;;;58.22;26.77;;;;;;;2.62;59.34;100823.72;7721573;32;40011;-82
2022/12/20 19:56:50;;;;;;;51.85;27.10;;;;;;;2.36;60.14;100832.41;7716916;32;40894;-82
2022/12/20 20:01:07;;;;;;;53.97;25.70;;;;;;;2.30;60.38;100835.84;7729708;32;38766;-81
2022/12/20 20:05:24;;;;;;;51.88;25.67;;;;;;;2.39;60.24;100829.28;7730101;32;37403;-80
2022/12/20 20:09:40;;;;;;;48.75;25.10;;;;;;;2.55;59.50;100820.16;7710400;32;39216;-81
2022/12/20 20:13:56;;;;;;;61.17;25.62;;;;;;;2.55;59.67;100816.59;7696471;32;39601;-80
2022/12/20 20:18:12;;;;;;;46.58;24.85;;;;;;;2.88;58.49;100816.03;7720799;32;38754;-82
2022/12/20 20:22:29;;;;;;;50.03;25.90;;;;;;;2.72;58.88;100817.97;7736494;32;37899;-82
2022/12/20 20:26:45;;;;;;;58.10;26.65;;;;;;;2.37;59.14;100814.38;7736690;32;38822;-82
2022/12/20 20:31:02;;;;;;;51.45;25.48;;;;;;;2.67;58.72;100793.50;7736571;32;40761;-83
2022/12/20 20:35:18;;;;;;;54.78;27.02;;;;;;;2.42;59.67;100793.09;7724603;32;38784;-81
2022/12/20 20:39:35;;;;;;;52.35;25.95;;;;;;;2.04;60.83;100788.81;7717214;32;37056;-81
2022/12/20 20:43:51;;;;;;;47.40;25.02;;;;;;;2.43;59.80;100783.97;7736507;32;39948;-80
2022/12/20 20:48:08;;;;;;;51.33;26.45;;;;;;;2.62;59.13;100769.03;7736412;32;40916;-80
2022/12/20 20:52:24;;;;;;;50.83;25.27;;;;;;;2.72;58.91;100771.38;7736363;32;38588;-81
2022/12/20 20:56:40;;;;;;;49.50;25.02;;;;;;;2.74;58.70;100775.56;7736410;32;37153;-80
2022/12/20 21:00:59;;;;;;;48.05;24.85;;;;;;;2.31;59.71;100764.88;7735763;32;39149;-80
2022/12/20 21:05:16;;;;;;;54.83;25.77;;;;;;;2.77;58.25;100775.16;7709583;32;38905;-81
2022/12/20 21:09:52;;;;;;;45.42;23.10;;;;;;;2.50;59.27;100767.91;7735199;32;39017;-81
2022/12/20 21:14:09;;;;;;;52.35;26.17;;;;;;;2.48;59.26;100765.41;7735803;32;37734;-80
2022/12/20 21:18:26;;;;;;;50.12;25.05;;;;;;;2.43;59.25;100774.06;7735745;32;39187;-81
2022/12/20 21:22:42;;;;;;;46.88;23.98;;;;;;;2.35;59.28;100762.63;7721670;32;40544;-81
2022/12/20 21:26:58;;;;;;;51.85;24.90;;;;;;;2.61;58.82;100751.22;7708491;32;38103;-80
2022/12/20 21:31:17;;;;;;;50.30;25.95;;;;;;;2.92;57.90;100740.03;7712289;32;37863;-80
2022/12/20 21:35:33;;;;;;;52.80;25.90;;;;;;;2.86;57.97;100738.13;7712597;32;38285;-81
2022/12/20 21:39:50;;;;;;;57.78;24.87;;;;;;;2.55;58.72;100720.53;7712177;32;40015;-80
2022/12/20 21:44:06;;;;;;;48.20;25.83;;;;;;;2.94;57.80;100720.97;7712261;32;37645;-81
2022/12/20 21:48:23;;;;;;;49.40;25.25;;;;;;;3.01;57.31;100708.37;7711114;32;37228;-81
2022/12/20 21:52:40;;;;;;;45.95;23.27;;;;;;;2.98;57.54;100714.16;7712306;32;39729;-79
2022/12/20 21:56:57;;;;;;;46.72;23.55;;;;;;;2.86;57.82;100699.59;7712244;32;40893;-80
2022/12/20 22:01:15;;;;;;;49.80;24.92;;;;;;;2.45;58.62;100711.97;7715534;32;38018;-80
2022/12/20 22:05:32;;;;;;;45.35;23.48;;;;;;;2.66;58.13;100710.22;7725280;32;37143;-80
2022/12/20 22:09:48;;;;;;;44.92;24.17;;;;;;;2.67;58.04;100701.97;7738991;32;38899;-80
2022/12/20 22:14:05;;;;;;;48.55;22.85;;;;;;;2.78;57.51;100681.75;7738847;32;40609;-80
2022/12/20 22:18:22;;;;;;;49.05;24.63;;;;;;;2.73;57.68;100684.19;7724966;32;37952;-80
2022/12/20 22:22:39;;;;;;;48.15;24.33;;;;;;;2.87;57.27;100675.16;7725007;32;37225;-79
2022/12/20 22:26:56;;;;;;;48.75;23.62;;;;;;;2.80;57.45;100660.81;7738650;32;39141;-79
2022/12/20 22:31:13;;;;;;;46.13;23.95;;;;;;;2.21;58.80;100648.66;7724957;32;40562;-79
2022/12/20 22:35:29;;;;;;;45.60;24.05;;;;;;;2.46;58.24;100648.19;7738234;32;38707;-79
2022/12/20 22:39:48;;;;;;;49.85;23.23;;;;;;;2.70;57.92;100639.63;7738319;32;37268;-80
2022/12/20 22:44:04;;;;;;;53.20;25.35;;;;;;;2.42;58.59;100632.44;7738543;32;39013;-79